Johnsonville, South Dakota
Current Conditions -  °F | °C
As of 11:13 AM on Thursday 30 Oct 2014 (Local Time) from KCNB Reporting Station
Overcast Overcast  
Wind Chill: 37°   Ceiling: 6000
Heat Index: 43°   Visibility: 10mi
Dew Point: 39°   Wind: 9mph
Humidity: 88%   Direction: 320°NW
Pressure: 30.12"   Gusts: NA
Location:  44.5872°N, 96.7638°W
Report Text: KCNB 301613Z AUTO 32008KT 10SM OVC060 06/04 A3012 RMK AO2 T00600041
Loading
Personal Weather Stations






























Interactive Weather Map
Tropical Storm Tracking
New forecast layout! Learn more

10-Day Weather Forecast

Advertisements
Track Severe Weather on mobile